createdAt,value
2023-02-12T00:00:30.440Z,3.30
2023-02-12T00:03:02.968Z,3.53
2023-02-12T00:05:32.995Z,4.40
2023-02-12T00:08:03.245Z,3.60
2023-02-12T00:10:33.190Z,4.80
2023-02-12T00:13:03.177Z,3.80
2023-02-12T00:15:34.507Z,3.33
2023-02-12T00:18:07.316Z,3.13
2023-02-12T00:20:37.318Z,2.80
2023-02-12T00:23:07.609Z,3.60
2023-02-12T00:25:37.605Z,2.72
2023-02-12T00:28:07.633Z,3.45
2023-02-12T00:30:38.394Z,4.10
2023-02-12T00:33:10.941Z,2.70
2023-02-12T00:35:41.281Z,4.28
2023-02-12T00:38:11.209Z,3.60
2023-02-12T00:40:41.190Z,4.15
2023-02-12T00:43:11.506Z,3.35
2023-02-12T00:45:41.502Z,5.25
2023-02-12T00:48:14.090Z,3.30
2023-02-12T00:50:45.026Z,4.10
2023-02-12T00:53:15.667Z,4.50
2023-02-12T00:55:45.657Z,5.57
2023-02-12T00:58:18.905Z,4.05
2023-02-12T01:00:49.439Z,5.00
2023-02-12T01:03:22.006Z,5.00
2023-02-12T01:05:52.007Z,4.35
2023-02-12T01:08:23.456Z,4.68
2023-02-12T01:10:59.294Z,3.97
2023-02-12T01:13:30.517Z,3.80
2023-02-12T01:16:12.829Z,4.25
2023-02-12T01:18:45.513Z,3.55
2023-02-12T01:21:17.084Z,3.78
2023-02-12T01:23:47.616Z,4.53
2023-02-12T01:26:18.654Z,5.07
2023-02-12T01:28:52.373Z,4.65
2023-02-12T01:31:24.614Z,3.92
2023-02-12T01:33:58.445Z,4.85
2023-02-12T01:36:30.378Z,4.28
2023-02-12T01:39:02.948Z,5.03
2023-02-12T01:41:35.118Z,3.90
2023-02-12T01:44:15.610Z,4.45
2023-02-12T01:46:46.815Z,3.80
2023-02-12T01:49:23.591Z,3.95
2023-02-12T01:51:56.516Z,3.70
2023-02-12T01:54:28.515Z,5.93
2023-02-12T01:56:58.541Z,6.32
2023-02-12T01:59:28.952Z,3.75
2023-02-12T02:01:58.968Z,4.93
2023-02-12T02:04:39.544Z,4.03
2023-02-12T02:07:10.931Z,4.22
2023-02-12T02:09:41.918Z,3.95
2023-02-12T02:12:24.546Z,4.10
2023-02-12T02:14:57.972Z,4.22
2023-02-12T02:17:38.187Z,4.85
2023-02-12T02:20:45.722Z,4.72
2023-02-12T02:23:45.534Z,3.42
2023-02-12T02:26:31.691Z,4.47
2023-02-12T02:29:11.547Z,3.95
2023-02-12T02:31:45.990Z,4.07
2023-02-12T02:34:22.097Z,4.45
2023-02-12T02:37:00.792Z,5.30
2023-02-12T02:39:36.477Z,4.30
2023-02-12T02:42:12.739Z,3.90
2023-02-12T02:44:46.611Z,4.63
2023-02-12T02:47:21.098Z,3.80
2023-02-12T02:49:54.253Z,4.38
2023-02-12T02:52:29.308Z,4.80
2023-02-12T02:55:01.931Z,5.18
2023-02-12T02:57:39.523Z,6.18
2023-02-12T03:00:15.002Z,4.22
2023-02-12T03:02:50.620Z,5.68
2023-02-12T03:05:24.564Z,5.07
2023-02-12T03:07:57.478Z,6.18
2023-02-12T03:10:30.379Z,4.13
2023-02-12T03:13:04.576Z,5.20
2023-02-12T03:15:37.840Z,5.70
2023-02-12T03:18:12.913Z,5.45
2023-02-12T03:20:46.387Z,6.15
2023-02-12T03:23:18.911Z,6.72
2023-02-12T03:25:54.568Z,5.50
2023-02-12T03:28:30.052Z,6.35
2023-02-12T03:31:06.238Z,6.75
2023-02-12T03:33:44.648Z,7.18
2023-02-12T03:36:26.921Z,6.93
2023-02-12T03:38:58.461Z,7.05
2023-02-12T03:41:32.058Z,6.93
2023-02-12T03:44:09.100Z,6.93
2023-02-12T03:46:44.681Z,7.10
2023-02-12T03:49:23.306Z,6.60
2023-02-12T03:51:54.020Z,5.97
2023-02-12T03:54:24.971Z,6.90
2023-02-12T03:56:58.358Z,6.07
2023-02-12T03:59:28.931Z,7.68
2023-02-12T04:02:01.904Z,8.48
2023-02-12T04:04:35.032Z,7.55
2023-02-12T04:07:05.224Z,7.72
2023-02-12T04:09:35.398Z,7.07
2023-02-12T04:12:20.217Z,7.57
2023-02-12T04:14:59.310Z,8.35
2023-02-12T04:17:36.514Z,7.95
2023-02-12T04:20:13.795Z,8.07
2023-02-12T04:22:52.989Z,11.10
2023-02-12T04:25:28.668Z,8.68
2023-02-12T04:28:03.822Z,7.65
2023-02-12T04:30:38.561Z,10.27
2023-02-12T04:33:10.876Z,10.32
2023-02-12T04:35:47.284Z,10.30
2023-02-12T04:38:20.730Z,10.40
2023-02-12T04:40:51.121Z,10.35
2023-02-12T04:43:30.500Z,10.40
2023-02-12T04:48:30.293Z,11.52
2023-02-12T04:51:02.879Z,8.13
2023-02-12T04:53:32.883Z,10.25
2023-02-12T04:56:02.845Z,8.18
2023-02-12T04:58:32.772Z,8.48
2023-02-12T05:01:02.766Z,11.20
2023-02-12T05:03:32.750Z,9.63
2023-02-12T05:06:08.890Z,8.88
2023-02-12T05:08:39.110Z,10.32
2023-02-12T05:11:09.760Z,10.55
2023-02-12T05:13:41.887Z,10.77
2023-02-12T05:16:11.868Z,10.02
2023-02-12T05:18:41.841Z,10.13
2023-02-12T05:21:14.435Z,8.18
2023-02-12T05:23:44.947Z,11.50
2023-02-12T05:26:16.966Z,7.90
2023-02-12T05:28:47.010Z,9.85
2023-02-12T05:31:21.489Z,9.85
2023-02-12T05:33:52.675Z,9.18
2023-02-12T05:36:26.602Z,9.95
2023-02-12T05:38:59.743Z,9.80
2023-02-12T05:41:34.810Z,9.90
2023-02-12T05:44:05.302Z,6.80
2023-02-12T05:46:35.375Z,9.07
2023-02-12T05:49:05.335Z,10.00
2023-02-12T05:51:38.127Z,8.75
2023-02-12T05:54:10.026Z,10.00
2023-02-12T05:56:41.454Z,10.27
2023-02-12T05:59:15.632Z,9.18
2023-02-12T06:01:47.518Z,9.57
2023-02-12T06:04:19.102Z,8.55
2023-02-12T06:06:51.736Z,6.20
2023-02-12T06:09:21.770Z,7.97
2023-02-12T06:11:51.706Z,9.45
2023-02-12T06:14:23.670Z,8.20
2023-02-12T06:16:54.422Z,8.88
2023-02-12T06:19:24.583Z,8.73
2023-02-12T06:21:57.126Z,9.00
2023-02-12T06:24:27.118Z,13.60
2023-02-12T06:26:57.087Z,12.45
2023-02-12T06:29:27.136Z,10.05
2023-02-12T06:31:57.145Z,8.95
2023-02-12T06:34:27.132Z,9.25
2023-02-12T06:37:00.128Z,7.50
2023-02-12T06:39:30.110Z,9.52
2023-02-12T06:42:00.085Z,10.43
2023-02-12T06:44:30.116Z,9.13
2023-02-12T06:47:00.167Z,8.63
2023-02-12T06:49:30.138Z,8.80
2023-02-12T06:52:03.502Z,9.95
2023-02-12T06:54:33.749Z,8.68
2023-02-12T06:57:03.689Z,9.73
2023-02-12T06:59:34.385Z,8.90
2023-02-12T07:02:04.278Z,8.15
2023-02-12T07:04:34.223Z,8.93
2023-02-12T07:07:07.302Z,8.55
2023-02-12T07:09:37.278Z,7.03
2023-02-12T07:12:07.362Z,8.15
2023-02-12T07:14:37.407Z,7.22
2023-02-12T07:17:08.793Z,8.95
2023-02-12T07:19:39.177Z,7.78
2023-02-12T07:22:11.763Z,8.90
2023-02-12T07:24:41.841Z,7.78
2023-02-12T07:27:11.773Z,7.38
2023-02-12T07:29:41.713Z,6.32
2023-02-12T07:32:11.761Z,6.82
2023-02-12T07:34:41.809Z,12.60
2023-02-12T07:37:14.358Z,10.15
2023-02-12T07:39:44.324Z,12.50
2023-02-12T07:42:15.232Z,10.88
2023-02-12T07:44:51.850Z,10.63
2023-02-12T07:47:21.799Z,9.52
2023-02-12T07:49:51.794Z,7.78
2023-02-12T07:52:24.337Z,8.90
2023-02-12T07:54:54.237Z,8.23
2023-02-12T07:57:24.406Z,8.50
2023-02-12T07:59:54.312Z,10.13
2023-02-12T08:02:25.729Z,8.77
2023-02-12T08:04:58.684Z,7.60
2023-02-12T08:07:31.285Z,14.60
2023-02-12T08:10:01.227Z,9.18
2023-02-12T08:12:31.158Z,10.50
2023-02-12T08:15:01.087Z,10.35
2023-02-12T08:17:31.005Z,8.73
2023-02-12T08:20:01.033Z,11.25
2023-02-12T08:22:33.581Z,23.10
2023-02-12T08:25:03.499Z,14.07
2023-02-12T08:27:33.469Z,14.93
2023-02-12T08:30:03.523Z,21.08
2023-02-12T08:32:33.909Z,9.45
2023-02-12T08:35:03.931Z,8.00
2023-02-12T08:37:36.461Z,9.35
2023-02-12T08:40:06.702Z,8.90
2023-02-12T08:42:36.629Z,9.38
2023-02-12T08:45:06.942Z,10.00
2023-02-12T08:47:36.862Z,9.85
2023-02-12T08:50:07.065Z,8.02
2023-02-12T08:52:42.966Z,9.68
2023-02-12T08:55:13.013Z,9.07
2023-02-12T08:57:43.000Z,8.00
2023-02-12T09:00:15.101Z,7.32
2023-02-12T09:02:45.152Z,8.05
2023-02-12T09:05:15.142Z,8.75
2023-02-12T09:07:47.680Z,8.95
2023-02-12T09:10:17.801Z,7.78
2023-02-12T09:12:48.534Z,8.23
2023-02-12T09:15:18.748Z,9.80
2023-02-12T09:17:48.666Z,9.43
2023-02-12T09:20:18.989Z,9.05
2023-02-12T09:22:51.735Z,9.77
2023-02-12T09:25:21.669Z,8.18
2023-02-12T09:27:51.628Z,8.10
2023-02-12T09:30:21.753Z,7.50
2023-02-12T09:32:51.814Z,7.78
2023-02-12T09:35:21.826Z,11.45
2023-02-12T09:37:55.628Z,10.15
2023-02-12T09:40:28.964Z,9.50
2023-02-12T09:43:07.908Z,10.00
2023-02-12T09:45:40.452Z,9.93
2023-02-12T09:48:20.046Z,10.77
2023-02-12T09:50:54.891Z,10.15
2023-02-12T09:53:34.415Z,9.90
2023-02-12T09:56:04.425Z,8.68
2023-02-12T09:58:37.052Z,9.10
2023-02-12T10:01:13.912Z,7.28
2023-02-12T10:03:44.500Z,9.18
2023-02-12T10:06:17.584Z,8.02
2023-02-12T10:09:00.524Z,8.98
2023-02-12T10:11:54.353Z,8.27
2023-02-12T10:15:03.599Z,8.48
2023-02-12T10:20:36.352Z,9.73
2023-02-12T10:23:18.044Z,9.40
2023-02-12T10:25:54.501Z,9.93
2023-02-12T10:28:29.370Z,9.32
2023-02-12T10:31:01.161Z,10.25
2023-02-12T10:33:36.364Z,7.88
2023-02-12T10:36:15.056Z,6.43
2023-02-12T10:38:48.941Z,8.10
2023-02-12T10:41:21.636Z,7.10
2023-02-12T10:43:51.737Z,6.95
2023-02-12T10:46:21.784Z,6.30
2023-02-12T10:48:58.971Z,7.20
2023-02-12T10:51:42.048Z,9.35
2023-02-12T10:54:41.057Z,5.93
2023-02-12T10:57:22.771Z,6.88
2023-02-12T10:59:54.232Z,6.90
2023-02-12T11:02:29.386Z,8.93
2023-02-12T11:05:01.497Z,7.43
2023-02-12T11:07:31.792Z,4.60
2023-02-12T11:10:01.750Z,7.10
2023-02-12T11:12:41.048Z,6.65
2023-02-12T11:17:47.459Z,6.90
2023-02-12T11:20:29.052Z,6.75
2023-02-12T11:23:01.187Z,6.75
2023-02-12T11:25:33.125Z,6.00
2023-02-12T11:28:13.508Z,9.65
2023-02-12T11:30:53.958Z,7.00
2023-02-12T11:33:29.622Z,6.68
2023-02-12T11:36:01.913Z,4.88
2023-02-12T11:38:37.226Z,6.28
2023-02-12T11:41:12.244Z,5.30
2023-02-12T11:43:44.910Z,5.50
2023-02-12T11:46:22.700Z,5.88
2023-02-12T11:48:52.982Z,6.25
2023-02-12T11:51:25.091Z,6.28
2023-02-12T11:53:56.810Z,6.85
2023-02-12T11:56:26.941Z,7.05
2023-02-12T11:59:14.662Z,6.40
2023-02-12T12:01:44.861Z,7.55
2023-02-12T12:04:17.970Z,7.55
2023-02-12T12:06:51.115Z,8.00
2023-02-12T12:09:26.970Z,7.63
2023-02-12T12:12:02.131Z,6.07
2023-02-12T12:14:56.396Z,5.97
2023-02-12T12:17:42.468Z,6.22
2023-02-12T12:20:15.374Z,6.13
2023-02-12T12:22:50.799Z,7.18
2023-02-12T12:25:25.695Z,5.53
2023-02-12T12:28:13.478Z,6.63
2023-02-12T12:30:52.839Z,6.18
2023-02-12T12:36:13.348Z,5.10
2023-02-12T12:38:50.141Z,5.95
2023-02-12T12:41:27.320Z,8.05
2023-02-12T12:44:09.745Z,5.90
2023-02-12T12:46:56.705Z,6.97
2023-02-12T12:49:37.934Z,4.85
2023-02-12T12:52:21.062Z,6.55
2023-02-12T12:55:08.458Z,5.28
2023-02-12T12:57:47.164Z,4.93
2023-02-12T13:00:44.351Z,5.00
2023-02-12T13:03:46.194Z,4.88
2023-02-12T13:06:24.830Z,6.68
2023-02-12T13:09:15.686Z,6.10
2023-02-12T13:11:52.788Z,5.32
2023-02-12T13:14:34.222Z,5.43
2023-02-12T13:17:09.212Z,7.85
2023-02-12T13:19:50.182Z,8.18
2023-02-12T13:22:26.431Z,7.97
2023-02-12T13:24:59.975Z,6.95
2023-02-12T13:27:34.474Z,6.45
2023-02-12T13:30:09.440Z,5.30
2023-02-12T13:32:43.455Z,5.03
2023-02-12T13:35:22.557Z,5.03
2023-02-12T13:37:55.337Z,4.82
2023-02-12T13:40:27.701Z,5.10
2023-02-12T13:43:01.463Z,5.40
2023-02-12T13:45:43.683Z,4.93
2023-02-12T13:48:32.093Z,4.47
2023-02-12T13:51:09.734Z,5.70
2023-02-12T13:53:49.699Z,4.65
2023-02-12T13:56:30.634Z,4.60
2023-02-12T13:59:01.129Z,4.30
2023-02-12T14:01:47.718Z,4.15
2023-02-12T14:04:29.911Z,5.28
2023-02-12T14:07:08.134Z,4.22
2023-02-12T14:09:40.860Z,5.63
2023-02-12T14:12:13.481Z,4.22
2023-02-12T14:14:45.651Z,7.85
2023-02-12T14:17:55.275Z,33.63
2023-02-12T14:20:28.240Z,18.38
2023-02-12T14:23:20.724Z,11.80
2023-02-12T14:25:59.137Z,20.38
2023-02-12T14:28:37.589Z,15.17
2023-02-12T14:31:32.492Z,11.13
2023-02-12T14:34:35.021Z,12.02
2023-02-12T14:37:18.948Z,11.02
2023-02-12T14:39:51.673Z,10.18
2023-02-12T14:42:46.282Z,11.93
2023-02-12T14:45:32.882Z,13.15
2023-02-12T14:48:02.995Z,35.03
2023-02-12T14:50:40.730Z,26.20
2023-02-12T14:53:27.093Z,32.03
2023-02-12T14:56:00.216Z,9.45
2023-02-12T14:58:31.247Z,6.63
2023-02-12T15:01:03.396Z,5.65
2023-02-12T15:03:41.234Z,7.75
2023-02-12T15:06:14.991Z,7.57
2023-02-12T15:08:48.263Z,8.90
2023-02-12T15:11:26.794Z,10.48
2023-02-12T15:13:58.948Z,10.98
2023-02-12T15:16:35.413Z,11.45
2023-02-12T15:19:11.030Z,14.00
2023-02-12T15:21:41.473Z,23.27
2023-02-12T15:24:13.231Z,21.15
2023-02-12T15:26:50.245Z,24.65
2023-02-12T15:29:24.462Z,33.63
2023-02-12T15:31:56.165Z,17.00
2023-02-12T15:34:28.380Z,31.40
2023-02-12T15:37:02.071Z,23.77
2023-02-12T15:39:37.889Z,13.95
2023-02-12T15:42:26.692Z,10.60
2023-02-12T15:45:11.954Z,16.42
2023-02-12T15:47:42.177Z,20.58
2023-02-12T15:50:15.257Z,25.48
2023-02-12T15:52:47.271Z,39.75
2023-02-12T15:55:19.418Z,44.63
2023-02-12T15:57:56.098Z,33.10
2023-02-12T16:00:31.997Z,50.35
2023-02-12T16:03:02.010Z,48.67
2023-02-12T16:05:34.781Z,32.90
2023-02-12T16:08:05.241Z,34.60
2023-02-12T16:10:35.260Z,23.27
2023-02-12T16:13:08.276Z,25.52
2023-02-12T16:15:40.447Z,31.33
2023-02-12T16:18:26.146Z,31.13
2023-02-12T16:21:06.438Z,36.97
2023-02-12T16:23:38.063Z,32.75
2023-02-12T16:26:08.591Z,29.65
2023-02-12T16:28:41.356Z,26.30
2023-02-12T16:31:13.469Z,32.92
2023-02-12T16:33:48.828Z,29.20
2023-02-12T16:36:32.009Z,48.75
2023-02-12T16:39:04.187Z,22.77
2023-02-12T16:41:35.159Z,23.52
2023-02-12T16:44:33.039Z,14.27
2023-02-12T16:47:03.877Z,14.65
2023-02-12T16:49:33.800Z,12.23
2023-02-12T16:52:23.575Z,10.25
2023-02-12T16:54:53.515Z,9.65
2023-02-12T16:57:23.488Z,13.23
2023-02-12T16:59:56.023Z,8.10
2023-02-12T17:02:25.977Z,10.63
2023-02-12T17:04:56.869Z,17.38
2023-02-12T17:07:29.555Z,47.70
2023-02-12T17:09:59.724Z,12.32
2023-02-12T17:12:29.949Z,16.42
2023-02-12T17:15:06.600Z,39.88
2023-02-12T17:17:36.523Z,11.43
2023-02-12T17:20:06.637Z,4.63
2023-02-12T17:22:36.696Z,11.95
2023-02-12T17:25:07.116Z,20.63
2023-02-12T17:27:38.232Z,8.25
2023-02-12T17:30:12.141Z,5.32
2023-02-12T17:32:42.119Z,5.75
2023-02-12T17:35:12.550Z,39.20
2023-02-12T17:37:42.466Z,42.25
2023-02-12T17:40:14.769Z,47.17
2023-02-12T17:42:44.743Z,54.05
2023-02-12T17:45:17.382Z,41.10
2023-02-12T17:47:47.293Z,37.25
2023-02-12T17:50:19.030Z,15.20
2023-02-12T17:52:49.315Z,7.68
2023-02-12T17:55:19.409Z,9.13
2023-02-12T17:57:49.337Z,5.45
2023-02-12T18:00:24.535Z,6.15
2023-02-12T18:02:57.044Z,6.75
2023-02-12T18:05:27.222Z,6.35
2023-02-12T18:07:57.309Z,7.15
2023-02-12T18:10:27.260Z,6.20
2023-02-12T18:12:57.338Z,7.20
2023-02-12T18:15:27.325Z,6.43
2023-02-12T18:17:59.922Z,7.10
2023-02-12T18:20:30.053Z,7.00
2023-02-12T18:22:59.991Z,7.38
2023-02-12T18:25:30.054Z,6.22
2023-02-12T18:28:01.395Z,11.95
2023-02-12T18:30:31.648Z,16.08
2023-02-12T18:33:04.386Z,13.85
2023-02-12T18:35:37.171Z,16.00
2023-02-12T18:38:10.920Z,24.55
2023-02-12T18:40:43.041Z,20.38
2023-02-12T18:43:13.005Z,17.85
2023-02-12T18:45:43.346Z,13.07
2023-02-12T18:48:16.012Z,15.20
2023-02-12T18:50:46.094Z,10.57
2023-02-12T18:53:16.094Z,7.32
2023-02-12T18:55:46.419Z,8.32
2023-02-12T18:58:16.427Z,7.55
2023-02-12T19:00:46.455Z,7.93
2023-02-12T19:03:19.851Z,6.15
2023-02-12T19:05:49.897Z,7.95
2023-02-12T19:08:19.996Z,10.15
2023-02-12T19:10:50.000Z,13.13
2023-02-12T19:13:20.053Z,13.82
2023-02-12T19:15:50.054Z,11.75
2023-02-12T19:18:22.609Z,9.45
2023-02-12T19:20:52.650Z,10.45
2023-02-12T19:23:27.235Z,12.98
2023-02-12T19:25:57.326Z,19.27
2023-02-12T19:28:27.333Z,17.00
2023-02-12T19:30:57.674Z,13.68
2023-02-12T19:33:30.563Z,19.73
2023-02-12T19:36:00.598Z,24.27
2023-02-12T19:38:30.647Z,19.15
2023-02-12T19:41:05.631Z,69.82
2023-02-12T19:43:35.915Z,64.97
2023-02-12T19:46:09.249Z,44.42
2023-02-12T19:48:42.165Z,41.78
2023-02-12T19:51:16.527Z,38.70
2023-02-12T19:53:46.688Z,29.02
2023-02-12T19:56:17.109Z,15.75
2023-02-12T19:58:48.095Z,12.60
2023-02-12T20:01:20.211Z,10.55
2023-02-12T20:03:52.953Z,11.73
2023-02-12T20:06:24.676Z,13.90
2023-02-12T20:08:54.770Z,20.45
2023-02-12T20:11:25.828Z,9.07
2023-02-12T20:13:55.904Z,9.90
2023-02-12T20:16:34.311Z,10.88
2023-02-12T20:19:11.059Z,10.38
2023-02-12T20:21:41.703Z,13.68
2023-02-12T20:24:11.631Z,10.68
2023-02-12T20:26:41.951Z,7.88
2023-02-12T20:29:11.928Z,8.23
2023-02-12T20:31:42.117Z,11.05
2023-02-12T20:34:16.325Z,9.05
2023-02-12T20:36:48.886Z,9.65
2023-02-12T20:39:20.355Z,13.13
2023-02-12T20:41:50.600Z,11.80
2023-02-12T20:44:23.063Z,10.30
2023-02-12T20:46:57.108Z,11.35
2023-02-12T20:49:29.989Z,8.65
2023-02-12T20:51:59.926Z,9.40
2023-02-12T20:54:29.838Z,8.55
2023-02-12T20:56:59.802Z,13.57
2023-02-12T20:59:29.813Z,9.02
2023-02-12T21:01:59.767Z,9.05
2023-02-12T21:04:32.666Z,7.40
2023-02-12T21:07:02.780Z,7.22
2023-02-12T21:09:33.759Z,9.55
2023-02-12T21:12:03.727Z,8.00
2023-02-12T21:14:33.749Z,7.13
2023-02-12T21:17:03.700Z,13.40
2023-02-12T21:19:37.053Z,9.73
2023-02-12T21:22:07.012Z,9.13
2023-02-12T21:24:37.076Z,10.43
2023-02-12T21:27:07.045Z,7.93
2023-02-12T21:29:36.991Z,13.02
2023-02-12T21:32:07.318Z,17.67
2023-02-12T21:34:40.178Z,16.35
2023-02-12T21:37:10.107Z,13.88
2023-02-12T21:39:40.016Z,16.85
2023-02-12T21:42:09.958Z,12.98
2023-02-12T21:44:39.917Z,17.30
2023-02-12T21:47:10.248Z,23.40
2023-02-12T21:49:42.921Z,19.45
2023-02-12T21:52:13.055Z,17.25
2023-02-12T21:54:43.104Z,15.20
2023-02-12T21:57:18.133Z,8.18
2023-02-12T21:59:48.118Z,7.50
2023-02-12T22:02:18.361Z,6.63
2023-02-12T22:04:50.925Z,90.07
2023-02-12T22:07:21.053Z,122.47
2023-02-12T22:09:51.039Z,78.05
2023-02-12T22:12:20.958Z,49.15
2023-02-12T22:14:50.888Z,24.42
2023-02-12T22:17:20.893Z,12.75
2023-02-12T22:19:53.455Z,23.55
2023-02-12T22:22:23.918Z,10.90
2023-02-12T22:24:53.834Z,8.48
2023-02-12T22:27:23.805Z,19.52
2023-02-12T22:29:53.836Z,23.25
2023-02-12T22:32:23.907Z,9.20
2023-02-12T22:34:56.740Z,21.63
2023-02-12T22:37:26.691Z,30.70
2023-02-12T22:39:56.626Z,38.80
2023-02-12T22:42:26.536Z,41.78
2023-02-12T22:44:56.470Z,42.80
2023-02-12T22:47:29.015Z,8.40
2023-02-12T22:50:01.750Z,11.20
2023-02-12T22:52:31.967Z,6.22
2023-02-12T22:55:01.928Z,5.93
2023-02-12T22:57:31.855Z,5.80
2023-02-12T23:00:01.810Z,6.93
2023-02-12T23:02:31.739Z,5.90
2023-02-12T23:05:04.305Z,7.43
2023-02-12T23:07:34.289Z,29.20
2023-02-12T23:10:04.254Z,14.55
2023-02-12T23:12:34.150Z,22.08
2023-02-12T23:15:04.099Z,20.83
2023-02-12T23:17:34.070Z,10.63
2023-02-12T23:20:07.559Z,11.13
2023-02-12T23:22:37.597Z,15.68
2023-02-12T23:25:08.123Z,13.68
2023-02-12T23:27:38.077Z,8.10
2023-02-12T23:30:09.492Z,7.07
2023-02-12T23:32:39.431Z,11.80
2023-02-12T23:35:12.188Z,9.77
2023-02-12T23:37:42.080Z,5.53
2023-02-12T23:40:13.881Z,10.38
2023-02-12T23:42:43.791Z,5.65
2023-02-12T23:45:13.692Z,4.93
2023-02-12T23:47:43.644Z,5.05
2023-02-12T23:50:16.331Z,6.07
2023-02-12T23:52:46.517Z,3.00
2023-02-12T23:55:16.510Z,4.10
2023-02-12T23:57:46.452Z,4.88
